createdAt,value
2024-02-29T00:00:15.444Z,1.52
2024-02-29T00:05:18.307Z,1.33
2024-02-29T00:10:20.029Z,1.32
2024-02-29T00:15:21.562Z,1.24
2024-02-29T00:20:24.462Z,1.18
2024-02-29T00:25:25.968Z,1.19
2024-02-29T00:30:27.487Z,1.18
2024-02-29T00:35:30.410Z,1.26
2024-02-29T00:40:31.922Z,1.20
2024-02-29T00:45:33.470Z,1.24
2024-02-29T00:50:36.361Z,1.32
2024-02-29T00:55:38.243Z,1.38
2024-02-29T01:00:39.842Z,1.33
2024-02-29T01:05:42.829Z,1.19
2024-02-29T01:10:44.369Z,1.18
2024-02-29T01:15:46.003Z,1.23
2024-02-29T01:20:49.003Z,1.35
2024-02-29T01:25:50.621Z,1.37
2024-02-29T01:30:52.250Z,1.49
2024-02-29T01:35:55.224Z,1.55
2024-02-29T01:40:56.757Z,1.64
2024-02-29T01:46:11.741Z,1.73
2024-02-29T01:51:15.513Z,1.83
2024-02-29T01:56:20.049Z,1.91
2024-02-29T02:01:21.619Z,1.84
2024-02-29T02:06:24.587Z,1.81
2024-02-29T02:11:26.271Z,1.93
2024-02-29T02:16:27.859Z,1.79
2024-02-29T02:21:30.845Z,1.62
2024-02-29T02:26:32.482Z,1.66
2024-02-29T02:31:34.120Z,1.74
2024-02-29T02:36:37.033Z,1.69
2024-02-29T02:41:38.691Z,1.54
2024-02-29T02:46:40.221Z,1.45
2024-02-29T02:51:43.180Z,1.23
2024-02-29T02:56:44.702Z,1.30
2024-02-29T03:01:46.285Z,1.30
2024-02-29T03:06:49.438Z,1.20
2024-02-29T03:11:51.185Z,1.19
2024-02-29T03:16:52.775Z,1.13
2024-02-29T03:21:55.662Z,1.12
2024-02-29T03:26:57.199Z,1.08
2024-02-29T03:31:58.776Z,1.08
2024-02-29T03:37:01.723Z,1.09
2024-02-29T03:42:03.544Z,1.01
2024-02-29T03:47:05.948Z,1.07
2024-02-29T03:52:08.968Z,1.04
2024-02-29T03:57:10.614Z,1.01
2024-02-29T04:02:12.124Z,0.96
2024-02-29T04:07:15.059Z,1.05
2024-02-29T04:12:16.662Z,1.10
2024-02-29T04:17:18.164Z,0.98
2024-02-29T04:22:21.121Z,1.04
2024-02-29T04:27:22.710Z,1.00
2024-02-29T04:32:24.317Z,1.00
2024-02-29T04:37:27.227Z,0.97
2024-02-29T04:42:28.762Z,0.98
2024-02-29T04:47:30.493Z,0.93
2024-02-29T04:52:33.332Z,0.92
2024-02-29T04:57:34.977Z,1.05
2024-02-29T05:02:36.472Z,0.89
2024-02-29T05:07:39.449Z,1.55
2024-02-29T05:12:41.048Z,0.92
2024-02-29T05:17:42.598Z,0.90
2024-02-29T05:22:45.533Z,0.93
2024-02-29T05:27:47.240Z,1.11
2024-02-29T05:32:48.962Z,0.93
2024-02-29T05:37:51.832Z,1.00
2024-02-29T05:42:53.363Z,1.08
2024-02-29T05:47:54.945Z,1.07
2024-02-29T05:52:57.802Z,0.97
2024-02-29T05:57:59.472Z,1.00
2024-02-29T06:03:01.008Z,1.06
2024-02-29T06:08:04.070Z,1.16
2024-02-29T06:13:05.620Z,1.15
2024-02-29T06:18:07.321Z,1.22
2024-02-29T06:23:10.224Z,1.19
2024-02-29T06:28:11.893Z,1.28
2024-02-29T06:33:13.587Z,1.36
2024-02-29T06:38:16.633Z,1.40
2024-02-29T06:43:18.286Z,1.37
2024-02-29T06:48:20.257Z,1.46
2024-02-29T06:53:23.256Z,1.42
2024-02-29T06:58:24.932Z,1.46
2024-02-29T07:03:26.497Z,1.73
2024-02-29T07:08:29.421Z,1.90
2024-02-29T07:13:30.946Z,1.85
2024-02-29T07:18:32.494Z,1.89
2024-02-29T07:23:35.856Z,1.95
2024-02-29T07:28:38.392Z,2.06
2024-02-29T07:33:40.131Z,2.02
2024-02-29T07:38:43.017Z,2.28
2024-02-29T07:43:44.556Z,2.16
2024-02-29T07:48:46.202Z,2.47
2024-02-29T07:53:49.145Z,2.46
2024-02-29T07:58:50.678Z,2.82
2024-02-29T08:03:52.188Z,2.87
2024-02-29T08:08:55.068Z,2.92
2024-02-29T08:13:56.583Z,3.23
2024-02-29T08:18:58.205Z,3.04
2024-02-29T08:24:01.181Z,3.25
2024-02-29T08:29:02.703Z,3.44
2024-02-29T08:34:04.327Z,3.57
2024-02-29T08:39:07.275Z,3.65
2024-02-29T08:44:08.832Z,3.61
2024-02-29T08:49:10.391Z,3.85
2024-02-29T08:54:13.368Z,3.84
2024-02-29T08:59:17.117Z,3.51
2024-02-29T09:04:20.092Z,3.55
2024-02-29T09:09:23.470Z,3.59
2024-02-29T09:14:25.343Z,3.60
2024-02-29T09:19:26.943Z,3.48
2024-02-29T09:24:29.932Z,3.35
2024-02-29T09:29:34.430Z,3.37
2024-02-29T09:34:38.491Z,3.66
2024-02-29T09:39:43.356Z,3.68
2024-02-29T09:44:44.957Z,3.91
2024-02-29T09:49:49.414Z,3.85
2024-02-29T09:54:55.899Z,4.09
2024-02-29T09:59:58.634Z,4.30
2024-02-29T10:05:00.194Z,4.08
2024-02-29T10:10:09.164Z,4.10
2024-02-29T10:15:11.385Z,4.60
2024-02-29T10:20:12.994Z,4.74
2024-02-29T10:25:16.020Z,4.71
2024-02-29T10:30:18.797Z,4.76
2024-02-29T10:35:21.753Z,4.91
2024-02-29T10:40:24.834Z,5.52
2024-02-29T10:45:27.627Z,5.23
2024-02-29T10:50:33.998Z,5.42
2024-02-29T10:55:48.409Z,5.74
2024-02-29T11:00:50.354Z,5.95
2024-02-29T11:05:52.561Z,6.35
2024-02-29T11:10:56.670Z,6.30
2024-02-29T11:15:58.311Z,6.24
2024-02-29T11:21:03.253Z,6.58
2024-02-29T11:26:08.884Z,6.88
2024-02-29T11:31:17.059Z,7.11
2024-02-29T11:36:20.039Z,7.17
2024-02-29T11:41:23.443Z,6.90
2024-02-29T11:46:25.134Z,6.86
2024-02-29T11:51:26.757Z,6.57
2024-02-29T11:56:29.601Z,6.75
2024-02-29T12:01:31.205Z,7.05
2024-02-29T12:06:34.116Z,7.50
2024-02-29T12:11:37.425Z,7.68
2024-02-29T12:16:40.727Z,7.53
2024-02-29T12:21:43.169Z,7.63
2024-02-29T12:26:48.898Z,7.38
2024-02-29T12:31:50.533Z,7.36
2024-02-29T12:36:52.206Z,7.35
2024-02-29T12:41:55.197Z,7.41
2024-02-29T12:46:56.697Z,7.64
2024-02-29T12:51:58.232Z,7.51
2024-02-29T12:57:01.180Z,7.74
2024-02-29T13:02:02.951Z,7.71
2024-02-29T13:07:04.888Z,7.77
2024-02-29T13:12:07.969Z,7.61
2024-02-29T13:17:09.568Z,7.43
2024-02-29T13:22:11.129Z,7.38
2024-02-29T13:27:14.064Z,7.61
2024-02-29T13:32:15.795Z,7.80
2024-02-29T13:37:19.532Z,7.72
2024-02-29T13:42:23.449Z,7.77
2024-02-29T13:47:24.981Z,7.56
2024-02-29T13:52:27.709Z,7.52
2024-02-29T13:57:30.591Z,7.57
2024-02-29T14:02:32.157Z,7.89
2024-02-29T14:07:33.919Z,7.61
2024-02-29T14:12:36.761Z,7.92
2024-02-29T14:17:39.217Z,7.77
2024-02-29T14:22:40.767Z,7.64
2024-02-29T14:27:43.730Z,7.41
2024-02-29T14:32:45.411Z,7.58
2024-02-29T14:37:47.065Z,7.38
2024-02-29T14:42:49.968Z,7.60
2024-02-29T14:47:51.704Z,7.37
2024-02-29T14:52:53.249Z,7.31
2024-02-29T14:57:56.405Z,7.30
2024-02-29T15:02:57.962Z,7.20
2024-02-29T15:07:59.583Z,7.28
2024-02-29T15:13:02.561Z,7.27
2024-02-29T15:18:04.951Z,7.20
2024-02-29T15:23:06.533Z,7.50
2024-02-29T15:28:09.491Z,7.29
2024-02-29T15:33:11.189Z,7.38
2024-02-29T15:38:12.798Z,7.00
2024-02-29T15:43:15.811Z,7.25
2024-02-29T15:48:17.590Z,7.26
2024-02-29T15:53:19.153Z,7.27
2024-02-29T15:58:22.094Z,7.37
2024-02-29T16:03:23.690Z,6.95
2024-02-29T16:08:26.321Z,6.90
2024-02-29T16:13:29.384Z,6.77
2024-02-29T16:18:30.970Z,6.71
2024-02-29T16:23:32.737Z,6.76
2024-02-29T16:28:35.659Z,6.76
2024-02-29T16:33:37.297Z,6.51
2024-02-29T16:38:38.897Z,6.43
2024-02-29T16:43:41.814Z,6.44
2024-02-29T16:48:43.461Z,6.19
2024-02-29T16:53:46.036Z,6.24
2024-02-29T16:58:48.988Z,6.10
2024-02-29T17:03:50.552Z,6.06
2024-02-29T17:08:52.111Z,6.10
2024-02-29T17:13:54.926Z,6.25
2024-02-29T17:18:56.461Z,6.09
2024-02-29T17:23:58.041Z,6.16
2024-02-29T17:29:00.982Z,5.95
2024-02-29T17:34:02.529Z,5.80
2024-02-29T17:39:04.283Z,5.95
2024-02-29T17:44:07.224Z,5.91
2024-02-29T17:49:08.850Z,5.80
2024-02-29T17:54:10.338Z,5.92
2024-02-29T17:59:13.288Z,5.84
2024-02-29T18:04:14.850Z,5.88
2024-02-29T18:09:16.361Z,5.78
2024-02-29T18:14:19.331Z,5.73
2024-02-29T18:19:20.972Z,5.66
2024-02-29T18:24:22.701Z,5.50
2024-02-29T18:29:27.248Z,5.48
2024-02-29T18:34:29.638Z,5.39
2024-02-29T18:39:31.241Z,5.46
2024-02-29T18:44:34.184Z,5.22
2024-02-29T18:49:35.731Z,5.38
2024-02-29T18:54:37.307Z,5.30
2024-02-29T18:59:40.221Z,5.25
2024-02-29T19:04:41.853Z,5.27
2024-02-29T19:09:43.549Z,5.21
2024-02-29T19:14:46.495Z,5.14
2024-02-29T19:19:48.155Z,5.10
2024-02-29T19:24:49.778Z,5.08
2024-02-29T19:29:52.828Z,5.04
2024-02-29T19:34:54.399Z,4.96
2024-02-29T19:39:55.959Z,5.00
2024-02-29T19:44:58.931Z,4.88
2024-02-29T19:50:00.747Z,4.91
2024-02-29T19:55:02.635Z,4.96
2024-02-29T20:00:06.796Z,4.83
2024-02-29T20:05:08.501Z,4.71
2024-02-29T20:10:10.699Z,4.77
2024-02-29T20:15:15.936Z,4.83
2024-02-29T20:20:17.866Z,4.79
2024-02-29T20:25:19.440Z,4.68
2024-02-29T20:30:22.978Z,4.70
2024-02-29T20:35:24.647Z,4.66
2024-02-29T20:40:26.328Z,4.57
2024-02-29T20:45:30.159Z,4.61
2024-02-29T20:50:31.760Z,4.62
2024-02-29T20:55:33.447Z,4.61
2024-02-29T21:00:36.286Z,4.50
2024-02-29T21:05:37.847Z,4.49
2024-02-29T21:10:39.455Z,4.47
2024-02-29T21:15:42.609Z,4.57
2024-02-29T21:20:44.309Z,4.49
2024-02-29T21:25:45.812Z,4.67
2024-02-29T21:30:48.847Z,4.69
2024-02-29T21:35:51.492Z,4.67
2024-02-29T21:40:53.248Z,4.78
2024-02-29T21:45:56.154Z,4.81
2024-02-29T21:50:57.724Z,4.36
2024-02-29T21:55:59.336Z,4.40
2024-02-29T22:01:02.289Z,4.41
2024-02-29T22:06:04.273Z,4.50
2024-02-29T22:11:05.836Z,4.48
2024-02-29T22:16:08.900Z,4.55
2024-02-29T22:21:10.717Z,4.53
2024-02-29T22:26:12.220Z,4.39
2024-02-29T22:31:15.443Z,4.13
2024-02-29T22:36:17.037Z,4.08
2024-02-29T22:41:18.604Z,4.10
2024-02-29T22:46:21.558Z,3.79
2024-02-29T22:51:23.209Z,4.03
2024-02-29T22:56:24.770Z,4.02
2024-02-29T23:01:27.707Z,3.76
2024-02-29T23:06:30.347Z,3.46
2024-02-29T23:11:32.209Z,3.66
2024-02-29T23:16:35.260Z,3.81
2024-02-29T23:21:36.793Z,3.76
2024-02-29T23:26:38.328Z,3.83
2024-02-29T23:31:41.185Z,3.81
2024-02-29T23:36:42.832Z,3.90
2024-02-29T23:41:44.466Z,3.96
2024-02-29T23:46:47.427Z,3.79
2024-02-29T23:51:49.076Z,3.83
2024-02-29T23:56:51.084Z,3.72
